Time;durP1;ratioP1;P1;durP2;ratioP2;P2;SDS_P1;SDS_P2;PMS_P1;PMS_P2;Temp;Humidity;BMP_temperature;BMP_pressure;BME280_temperature;BME280_humidity;BME280_pressure;Samples;Min_cycle;Max_cycle;Signal;HPM_P1;HPM_P2
2021/01/03 00:00:23;;;;;;;31.30;13.55;;;20.70;38.10;;;;;;5090507;28;20119;-69
2021/01/03 00:02:49;;;;;;;31.70;14.45;;;20.70;38.20;;;;;;5106103;28;20036;-68
2021/01/03 00:05:17;;;;;;;25.67;11.18;;;20.70;38.20;;;;;;5090054;28;20107;-68
2021/01/03 00:07:43;;;;;;;28.08;13.35;;;20.70;38.30;;;;;;5073617;28;20122;-69
2021/01/03 00:10:09;;;;;;;30.83;13.13;;;20.70;38.30;;;;;;5092304;28;20455;-68
2021/01/03 00:12:35;;;;;;;31.85;13.32;;;20.70;38.30;;;;;;5107450;28;20043;-68
2021/01/03 00:15:00;;;;;;;30.90;14.32;;;20.60;38.20;;;;;;5091376;28;20024;-69
2021/01/03 00:17:26;;;;;;;37.08;14.48;;;20.60;38.20;;;;;;5076121;28;20499;-68
2021/01/03 00:19:52;;;;;;;29.05;12.82;;;20.60;38.30;;;;;;5095187;28;20403;-68
2021/01/03 00:22:17;;;;;;;31.02;12.70;;;20.60;38.30;;;;;;5095597;28;20103;-69
2021/01/03 00:24:43;;;;;;;24.63;10.10;;;20.60;38.40;;;;;;5093706;28;20040;-68
2021/01/03 00:27:08;;;;;;;31.15;13.00;;;20.60;38.30;;;;;;5076941;28;20106;-68
2021/01/03 00:29:34;;;;;;;12.73;4.47;;;20.50;38.30;;;;;;5108649;28;20032;-68
2021/01/03 00:32:00;;;;;;;17.25;7.03;;;20.50;38.50;;;;;;5093743;28;20047;-72
2021/01/03 00:34:26;;;;;;;25.42;9.32;;;20.50;38.30;;;;;;5101124;28;20415;-72
2021/01/03 00:36:51;;;;;;;30.52;13.25;;;20.50;38.40;;;;;;5110845;28;20038;-71
2021/01/03 00:39:17;;;;;;;30.50;12.90;;;20.50;38.40;;;;;;5095049;28;20495;-71
2021/01/03 00:41:46;;;;;;;31.75;13.05;;;20.40;38.40;;;;;;5094777;28;20407;-72
2021/01/03 00:44:24;;;;;;;31.10;12.98;;;20.40;38.40;;;;;;5059976;28;20103;-72
2021/01/03 00:46:49;;;;;;;33.38;13.30;;;20.40;38.50;;;;;;5094420;28;20407;-72
2021/01/03 00:49:15;;;;;;;21.23;7.13;;;20.40;38.50;;;;;;5110927;28;20020;-72
2021/01/03 00:51:41;;;;;;;27.25;12.35;;;20.40;38.50;;;;;;5110589;28;20547;-73
2021/01/03 00:54:06;;;;;;;33.22;13.20;;;20.30;38.50;;;;;;5095163;28;20039;-73
2021/01/03 00:56:38;;;;;;;29.52;11.43;;;20.30;38.50;;;;;;5110746;28;20032;-73
2021/01/03 00:59:03;;;;;;;31.50;13.02;;;20.30;38.50;;;;;;5093587;28;20403;-73
2021/01/03 01:01:29;;;;;;;27.52;12.30;;;20.40;38.60;;;;;;5094399;28;20058;-72
2021/01/03 01:03:54;;;;;;;28.00;12.68;;;20.30;38.60;;;;;;5094483;28;20047;-69
2021/01/03 01:06:20;;;;;;;33.88;12.68;;;20.30;38.60;;;;;;5110857;28;20028;-69
2021/01/03 01:08:46;;;;;;;26.13;11.55;;;20.30;38.60;;;;;;5076370;28;20028;-69
2021/01/03 01:11:12;;;;;;;27.88;12.15;;;20.30;39.30;;;;;;5076139;28;20510;-68
2021/01/03 01:13:37;;;;;;;24.08;10.25;;;20.30;38.70;;;;;;5094437;28;20032;-69
2021/01/03 01:16:05;;;;;;;26.98;12.35;;;20.20;38.60;;;;;;5094250;28;20028;-68
2021/01/03 01:18:31;;;;;;;32.00;13.45;;;20.20;38.60;;;;;;5093814;28;20124;-69
2021/01/03 01:20:56;;;;;;;23.75;8.43;;;20.20;38.60;;;;;;5094406;28;20095;-68
2021/01/03 01:23:22;;;;;;;31.27;11.60;;;20.30;38.70;;;;;;5091731;28;20040;-69
2021/01/03 01:25:48;;;;;;;25.13;9.80;;;20.20;38.60;;;;;;5092677;28;20028;-69
2021/01/03 01:28:13;;;;;;;26.80;12.77;;;20.20;38.50;;;;;;5092504;28;20024;-69
2021/01/03 01:30:39;;;;;;;30.15;13.20;;;20.30;38.70;;;;;;5075611;28;20055;-69
2021/01/03 01:33:05;;;;;;;26.42;11.90;;;20.20;38.60;;;;;;5075833;28;20066;-69
2021/01/03 01:35:32;;;;;;;27.30;11.23;;;20.20;38.50;;;;;;5095918;28;20023;-69
2021/01/03 01:37:57;;;;;;;28.88;11.23;;;20.20;39.20;;;;;;5103338;28;20043;-68
2021/01/03 01:40:26;;;;;;;29.00;12.30;;;20.20;38.50;;;;;;5094293;28;20028;-70
2021/01/03 01:42:52;;;;;;;29.77;11.43;;;20.20;38.50;;;;;;5093883;28;20023;-68
2021/01/03 01:45:20;;;;;;;30.88;11.18;;;20.20;38.50;;;;;;5075499;28;20028;-68
2021/01/03 01:47:50;;;;;;;31.52;12.00;;;20.20;38.50;;;;;;5074856;28;20479;-68
2021/01/03 01:50:20;;;;;;;32.55;11.70;;;20.20;38.50;;;;;;5059772;28;20020;-68
2021/01/03 01:52:49;;;;;;;29.90;11.48;;;20.20;38.50;;;;;;5076060;28;20028;-68
2021/01/03 01:55:20;;;;;;;29.88;11.75;;;20.20;38.50;;;;;;5075285;28;20483;-68
2021/01/03 01:58:21;;;;;;;30.10;12.48;;;20.20;38.50;;;;;;5075229;28;20020;-68
2021/01/03 02:00:49;;;;;;;31.35;12.75;;;20.20;38.50;;;;;;5050638;28;20045;-68
2021/01/03 02:03:22;;;;;;;27.70;10.63;;;20.20;38.60;;;;;;5031261;28;20096;-68
2021/01/03 02:05:57;;;;;;;27.10;9.73;;;20.10;38.50;;;;;;5033492;28;20683;-68
2021/01/03 02:08:36;;;;;;;28.40;11.27;;;20.10;38.50;;;;;;5048032;28;20025;-68
2021/01/03 02:11:03;;;;;;;33.47;13.20;;;20.20;38.60;;;;;;5030687;28;20124;-68
2021/01/03 02:13:37;;;;;;;27.20;11.05;;;20.10;38.60;;;;;;5014175;28;20084;-68
2021/01/03 02:16:22;;;;;;;28.70;10.50;;;20.10;38.60;;;;;;5047532;28;20040;-68
2021/01/03 02:18:48;;;;;;;22.02;9.00;;;20.10;38.70;;;;;;5014908;28;20231;-68
2021/01/03 02:21:34;;;;;;;30.02;11.27;;;20.10;38.70;;;;;;5047520;28;20033;-68
2021/01/03 02:24:20;;;;;;;28.52;10.05;;;20.00;38.70;;;;;;5021626;28;20529;-68
2021/01/03 02:27:30;;;;;;;29.48;8.73;;;20.00;38.70;;;;;;5074505;27;20884;-69
2021/01/03 02:30:12;;;;;;;27.65;9.90;;;20.10;38.70;;;;;;5067727;28;20410;-69
2021/01/03 02:32:38;;;;;;;29.67;12.10;;;20.00;38.70;;;;;;5050611;28;20056;-69
2021/01/03 02:35:06;;;;;;;35.75;12.25;;;20.00;38.70;;;;;;5062508;28;20032;-68
2021/01/03 02:37:35;;;;;;;32.67;12.38;;;20.00;38.70;;;;;;5069842;28;20017;-68
2021/01/03 02:40:08;;;;;;;33.10;12.35;;;20.00;38.80;;;;;;5084495;28;20023;-68
2021/01/03 02:42:37;;;;;;;29.85;11.05;;;20.00;38.80;;;;;;5067145;28;20032;-68
2021/01/03 02:45:19;;;;;;;29.40;11.48;;;20.00;38.80;;;;;;5094097;28;20540;-69
2021/01/03 02:47:48;;;;;;;31.63;13.25;;;20.00;38.90;;;;;;5087979;28;20029;-68
2021/01/03 02:50:16;;;;;;;33.03;12.18;;;20.00;38.80;;;;;;5051550;28;20025;-68
2021/01/03 02:52:42;;;;;;;36.83;13.07;;;19.90;38.80;;;;;;5066103;28;20169;-68
2021/01/03 02:55:10;;;;;;;31.10;12.65;;;19.90;38.80;;;;;;5069218;28;20047;-68
2021/01/03 02:57:45;;;;;;;28.10;11.25;;;19.90;38.80;;;;;;5047220;28;20542;-68
2021/01/03 03:00:13;;;;;;;33.55;11.82;;;19.90;38.80;;;;;;5066846;28;20079;-68
2021/01/03 03:02:39;;;;;;;22.20;8.52;;;19.90;38.80;;;;;;5063683;28;20027;-69
2021/01/03 03:05:05;;;;;;;33.10;11.52;;;19.90;38.80;;;;;;5057707;28;20467;-68
2021/01/03 03:07:31;;;;;;;19.02;7.38;;;19.90;38.80;;;;;;5064523;28;20493;-68
2021/01/03 03:10:15;;;;;;;8.98;3.65;;;19.90;38.70;;;;;;5064681;28;20041;-68
2021/01/03 03:12:41;;;;;;;31.83;11.10;;;19.90;38.70;;;;;;5075162;28;20021;-68
2021/01/03 03:15:11;;;;;;;4.43;1.90;;;19.90;38.60;;;;;;5068040;28;20031;-68
2021/01/03 03:17:36;;;;;;;15.68;4.72;;;19.90;38.60;;;;;;5067551;28;20032;-69
2021/01/03 03:20:03;;;;;;;44.53;14.85;;;19.90;38.60;;;;;;5068772;28;20400;-69
2021/01/03 03:22:28;;;;;;;39.75;14.50;;;19.90;38.60;;;;;;5068842;28;20071;-68
2021/01/03 03:24:54;;;;;;;25.00;7.75;;;19.90;38.60;;;;;;5068200;28;20076;-69
2021/01/03 03:27:20;;;;;;;39.88;13.57;;;19.90;38.60;;;;;;5065920;28;20446;-68
2021/01/03 03:29:45;;;;;;;42.30;14.05;;;19.90;38.60;;;;;;5054624;28;20021;-68
2021/01/03 03:32:11;;;;;;;42.33;14.15;;;19.90;38.60;;;;;;5067135;28;20075;-71
2021/01/03 03:34:36;;;;;;;36.90;13.23;;;19.90;38.60;;;;;;5065775;28;20078;-71
2021/01/03 03:37:02;;;;;;;39.28;13.00;;;19.90;38.60;;;;;;5054956;28;20071;-71
2021/01/03 03:39:27;;;;;;;32.38;10.13;;;19.90;38.60;;;;;;5053016;28;20026;-72
2021/01/03 03:41:56;;;;;;;40.97;13.40;;;19.90;38.60;;;;;;5038967;28;20500;-72
2021/01/03 03:44:22;;;;;;;42.28;14.55;;;19.90;38.50;;;;;;5056755;28;20017;-72
2021/01/03 03:46:55;;;;;;;37.72;12.60;;;19.80;38.60;;;;;;5054824;28;20106;-73
2021/01/03 03:49:21;;;;;;;38.13;13.52;;;19.90;38.60;;;;;;5053583;28;20413;-72
2021/01/03 03:51:47;;;;;;;37.92;13.57;;;19.80;38.50;;;;;;5054679;28;20025;-72
2021/01/03 03:54:12;;;;;;;40.50;12.85;;;19.80;38.50;;;;;;5051825;28;20025;-72
2021/01/03 03:56:38;;;;;;;27.58;8.88;;;19.80;38.60;;;;;;5049882;28;20390;-72
2021/01/03 03:59:03;;;;;;;36.45;12.48;;;19.80;38.60;;;;;;5054502;28;20051;-72
2021/01/03 04:01:37;;;;;;;29.40;7.40;;;19.80;39.30;;;;;;5053320;28;20063;-73
2021/01/03 04:04:02;;;;;;;35.30;10.50;;;19.80;38.60;;;;;;5046525;28;20027;-72
2021/01/03 04:06:28;;;;;;;19.70;5.70;;;19.80;39.30;;;;;;5055141;28;20415;-72
2021/01/03 04:08:53;;;;;;;27.05;9.25;;;19.80;38.60;;;;;;5054756;28;20060;-72
2021/01/03 04:11:19;;;;;;;31.60;10.50;;;19.70;38.60;;;;;;5053944;28;20488;-73
2021/01/03 04:14:03;;;;;;;20.27;6.03;;;19.70;38.60;;;;;;5038866;28;20547;-72
2021/01/03 04:16:28;;;;;;;36.95;12.27;;;19.70;38.60;;;;;;5034828;28;20116;-71
2021/01/03 04:18:54;;;;;;;43.70;13.60;;;19.70;38.60;;;;;;5051933;28;20155;-72
2021/01/03 04:21:19;;;;;;;28.58;9.52;;;19.70;38.60;;;;;;5052657;28;20028;-72
2021/01/03 04:23:45;;;;;;;29.13;9.65;;;19.70;38.60;;;;;;5053382;28;20036;-72
2021/01/03 04:26:20;;;;;;;35.25;10.18;;;19.70;38.70;;;;;;5051804;28;20072;-72
2021/01/03 04:28:46;;;;;;;36.38;12.35;;;19.70;38.70;;;;;;5082703;28;20033;-73
2021/01/03 04:31:15;;;;;;;4.53;1.45;;;19.70;38.70;;;;;;5052339;28;20163;-72
2021/01/03 04:33:41;;;;;;;13.18;4.85;;;19.60;38.70;;;;;;5068407;28;20060;-72
2021/01/03 04:36:08;;;;;;;30.17;10.45;;;19.60;38.60;;;;;;5049874;28;20056;-72
2021/01/03 04:38:34;;;;;;;26.35;10.32;;;19.60;38.70;;;;;;5049808;28;20029;-72
2021/01/03 04:40:59;;;;;;;13.57;5.10;;;19.60;38.70;;;;;;5034517;28;20036;-72
2021/01/03 04:43:25;;;;;;;6.10;2.50;;;19.60;38.70;;;;;;5032986;28;20095;-72
2021/01/03 04:45:54;;;;;;;10.88;4.05;;;19.60;38.70;;;;;;5039449;28;20048;-72
2021/01/03 04:48:23;;;;;;;18.67;6.90;;;19.60;38.60;;;;;;5052294;28;20104;-71
2021/01/03 04:50:49;;;;;;;35.67;10.77;;;19.60;38.60;;;;;;5045767;28;20025;-72
2021/01/03 04:53:37;;;;;;;36.03;11.35;;;19.60;38.60;;;;;;5034226;28;20029;-72
2021/01/03 04:56:45;;;;;;;33.95;11.10;;;19.60;38.60;;;;;;5033108;28;20041;-72
2021/01/03 04:59:16;;;;;;;13.93;3.50;;;19.60;38.60;;;;;;5056913;28;20041;-72
2021/01/03 05:02:17;;;;;;;6.35;2.88;;;19.60;38.60;;;;;;5035595;28;20032;-73
2021/01/03 05:04:46;;;;;;;6.63;3.22;;;19.60;38.60;;;;;;5044016;28;20043;-72
2021/01/03 05:07:24;;;;;;;9.73;3.78;;;19.60;38.60;;;;;;5053653;28;20017;-72
2021/01/03 05:09:50;;;;;;;8.10;3.50;;;19.60;38.70;;;;;;5054005;28;20100;-72
2021/01/03 05:12:26;;;;;;;8.65;3.42;;;19.60;38.70;;;;;;5052988;28;20025;-72
2021/01/03 05:14:53;;;;;;;10.05;3.70;;;19.50;38.80;;;;;;5052246;28;20028;-72
2021/01/03 05:17:19;;;;;;;14.02;5.68;;;19.50;38.80;;;;;;5052498;28;20032;-72
2021/01/03 05:19:45;;;;;;;9.70;3.63;;;19.50;38.80;;;;;;5053203;28;20017;-72
2021/01/03 05:22:28;;;;;;;9.82;4.13;;;19.50;38.80;;;;;;5052553;28;20396;-68
2021/01/03 05:24:54;;;;;;;8.68;3.55;;;19.50;38.80;;;;;;5052022;28;20524;-69
2021/01/03 05:27:20;;;;;;;7.40;3.45;;;19.50;38.90;;;;;;5048864;28;20025;-68
2021/01/03 05:29:46;;;;;;;9.10;3.88;;;19.50;38.90;;;;;;5066416;28;20028;-68
2021/01/03 05:32:12;;;;;;;7.35;3.22;;;19.50;38.90;;;;;;5037294;28;20028;-68
2021/01/03 05:34:42;;;;;;;7.22;3.10;;;19.50;39.00;;;;;;5045382;28;20084;-68
2021/01/03 05:37:21;;;;;;;6.95;2.97;;;19.50;39.00;;;;;;5048739;28;20021;-69
2021/01/03 05:39:47;;;;;;;7.57;3.15;;;19.50;39.60;;;;;;5033653;28;20034;-72
2021/01/03 05:42:21;;;;;;;11.73;4.45;;;19.50;39.10;;;;;;5065088;28;20049;-72
2021/01/03 05:45:06;;;;;;;25.77;14.13;;;19.50;39.00;;;;;;5049028;28;20080;-72
2021/01/03 05:47:37;;;;;;;7.93;3.47;;;19.40;39.00;;;;;;5031784;28;20076;-72
2021/01/03 05:50:31;;;;;;;7.90;3.40;;;19.40;39.00;;;;;;5032958;28;20021;-72
2021/01/03 05:53:00;;;;;;;7.40;3.42;;;19.40;39.10;;;;;;5035905;28;20064;-72
2021/01/03 05:55:27;;;;;;;6.63;3.17;;;19.40;39.10;;;;;;5030826;28;20061;-72
2021/01/03 05:58:10;;;;;;;8.98;4.03;;;19.40;39.20;;;;;;5025249;28;20037;-72
2021/01/03 06:00:36;;;;;;;5.63;2.95;;;19.40;39.20;;;;;;5048861;28;20029;-72
2021/01/03 06:03:22;;;;;;;7.25;2.95;;;19.40;39.30;;;;;;5031060;28;20029;-72
2021/01/03 06:06:09;;;;;;;5.88;2.28;;;19.40;39.30;;;;;;5030666;28;20083;-72
2021/01/03 06:08:36;;;;;;;6.97;3.20;;;19.40;39.30;;;;;;5041665;28;20036;-72
2021/01/03 06:11:15;;;;;;;6.90;3.08;;;19.40;39.40;;;;;;5065739;28;20037;-72
2021/01/03 06:13:46;;;;;;;6.60;2.35;;;19.40;39.50;;;;;;5048499;28;20132;-72
2021/01/03 06:16:11;;;;;;;7.53;2.78;;;19.30;39.40;;;;;;5013230;28;20095;-72
2021/01/03 06:18:43;;;;;;;8.35;2.75;;;19.30;40.00;;;;;;5049513;28;20029;-72
2021/01/03 06:21:31;;;;;;;7.28;2.67;;;19.30;39.40;;;;;;5050640;28;20029;-72
2021/01/03 06:24:13;;;;;;;6.35;3.05;;;19.40;39.40;;;;;;5067268;28;20083;-72
2021/01/03 06:27:11;;;;;;;6.45;2.38;;;19.40;39.40;;;;;;5051416;28;20052;-68
2021/01/03 06:30:10;;;;;;;5.55;2.58;;;19.40;39.50;;;;;;4965657;28;20058;-68
2021/01/03 06:32:47;;;;;;;4.50;2.45;;;19.40;39.50;;;;;;4936587;29;20106;-68
2021/01/03 06:35:29;;;;;;;7.78;3.05;;;19.30;39.50;;;;;;4957431;28;20048;-68
2021/01/03 06:37:56;;;;;;;6.15;2.55;;;19.40;39.40;;;;;;4951381;28;20102;-68
2021/01/03 06:40:32;;;;;;;6.47;2.53;;;19.40;39.30;;;;;;4971394;28;20046;-68
2021/01/03 06:43:22;;;;;;;8.95;3.38;;;19.50;39.30;;;;;;4968871;28;20118;-68
2021/01/03 06:45:53;;;;;;;6.20;2.30;;;19.50;39.20;;;;;;4940580;28;20051;-68
2021/01/03 06:48:24;;;;;;;5.78;2.75;;;19.60;39.10;;;;;;4963266;28;20119;-68
2021/01/03 06:51:23;;;;;;;6.60;2.97;;;19.60;39.00;;;;;;4970913;28;20034;-68
2021/01/03 06:54:21;;;;;;;6.78;2.38;;;19.70;39.00;;;;;;4953205;28;20038;-68
2021/01/03 06:57:13;;;;;;;6.70;2.63;;;19.80;38.80;;;;;;4957311;28;20507;-68
2021/01/03 07:00:17;;;;;;;5.47;2.28;;;19.90;38.60;;;;;;4955242;28;20438;-68
2021/01/03 07:02:48;;;;;;;5.22;2.30;;;19.90;38.40;;;;;;4936008;29;20047;-68
2021/01/03 07:05:14;;;;;;;8.13;2.35;;;20.00;38.40;;;;;;4952862;28;20046;-68
2021/01/03 07:07:41;;;;;;;5.80;2.33;;;20.00;38.40;;;;;;4954539;28;20035;-68
2021/01/03 07:10:20;;;;;;;7.43;3.13;;;20.10;38.30;;;;;;4969934;28;20070;-68
2021/01/03 07:12:48;;;;;;;4.13;2.00;;;20.10;38.20;;;;;;4972895;28;20035;-68
2021/01/03 07:15:25;;;;;;;5.70;2.80;;;20.10;38.20;;;;;;4974973;28;20023;-68
2021/01/03 07:17:57;;;;;;;5.18;2.75;;;20.10;38.10;;;;;;4964369;28;20070;-68
2021/01/03 07:21:03;;;;;;;6.13;2.92;;;20.10;38.00;;;;;;4955673;29;20549;-69
2021/01/03 07:23:34;;;;;;;9.82;2.72;;;20.20;38.10;;;;;;4971736;28;20066;-68
2021/01/03 07:26:07;;;;;;;6.70;2.97;;;20.20;38.00;;;;;;4955341;28;20059;-68
2021/01/03 07:28:33;;;;;;;6.70;2.58;;;20.20;38.00;;;;;;4974670;28;20030;-68
2021/01/03 07:31:02;;;;;;;6.75;2.72;;;20.20;38.00;;;;;;4974319;28;20533;-68
2021/01/03 07:33:45;;;;;;;4.53;2.15;;;20.20;38.00;;;;;;5056880;28;20053;-69
2021/01/03 07:36:23;;;;;;;6.68;2.38;;;20.20;38.00;;;;;;5037771;28;20440;-69
2021/01/03 07:39:19;;;;;;;5.55;2.47;;;20.20;38.00;;;;;;5054093;28;20484;-72
2021/01/03 07:41:45;;;;;;;8.75;2.22;;;20.30;38.00;;;;;;5053204;28;20025;-72
2021/01/03 07:44:28;;;;;;;3.42;2.35;;;20.20;38.00;;;;;;5053687;28;20048;-72
2021/01/03 07:47:01;;;;;;;3.63;2.17;;;20.30;38.10;;;;;;5054775;28;20033;-72
2021/01/03 07:49:41;;;;;;;5.30;2.50;;;20.30;38.10;;;;;;5053410;28;20037;-68
2021/01/03 07:52:19;;;;;;;9.00;2.38;;;20.30;38.10;;;;;;5049908;28;20017;-68
2021/01/03 07:54:50;;;;;;;5.60;2.90;;;20.30;38.10;;;;;;5052682;28;20023;-68
2021/01/03 07:57:16;;;;;;;4.72;2.80;;;20.30;38.10;;;;;;5053327;28;20037;-68
2021/01/03 07:59:46;;;;;;;8.85;3.75;;;20.30;38.70;;;;;;5050989;28;20025;-68
2021/01/03 08:02:11;;;;;;;7.25;3.25;;;20.40;38.00;;;;;;5053727;28;20021;-68
2021/01/03 08:04:37;;;;;;;5.65;3.08;;;20.40;38.10;;;;;;5051801;28;20098;-68
2021/01/03 08:07:49;;;;;;;8.68;3.10;;;20.40;38.00;;;;;;5054680;28;20059;-68
2021/01/03 08:10:15;;;;;;;7.93;3.38;;;20.40;37.90;;;;;;5055123;28;20108;-72
2021/01/03 08:12:53;;;;;;;7.53;2.67;;;20.40;37.90;;;;;;5055030;28;20051;-69
2021/01/03 08:15:21;;;;;;;4.95;2.88;;;20.40;37.90;;;;;;5038481;28;20048;-68
2021/01/03 08:17:46;;;;;;;6.25;2.85;;;20.50;37.90;;;;;;5053040;28;20029;-68
2021/01/03 08:20:19;;;;;;;14.63;3.70;;;20.50;37.80;;;;;;5046931;28;20048;-68
2021/01/03 08:22:45;;;;;;;8.05;2.35;;;20.60;37.70;;;;;;5033594;28;20539;-68
2021/01/03 08:25:17;;;;;;;6.90;2.97;;;20.60;37.60;;;;;;5069008;28;20041;-68
2021/01/03 08:27:50;;;;;;;9.68;3.67;;;20.70;37.50;;;;;;5036813;28;20046;-68
2021/01/03 08:30:18;;;;;;;8.48;3.38;;;20.70;37.40;;;;;;5070498;28;20029;-68
2021/01/03 08:32:43;;;;;;;8.05;3.13;;;20.70;37.30;;;;;;5052119;28;20432;-68
2021/01/03 08:35:28;;;;;;;6.72;2.70;;;20.70;37.30;;;;;;5047276;28;20028;-68
2021/01/03 08:37:57;;;;;;;6.82;3.00;;;20.70;37.40;;;;;;5052925;28;20032;-69
2021/01/03 08:40:28;;;;;;;5.20;2.90;;;20.60;37.40;;;;;;5054020;28;20492;-69
2021/01/03 08:43:03;;;;;;;6.65;2.90;;;20.60;37.30;;;;;;5053958;28;20024;-73
2021/01/03 08:45:32;;;;;;;7.72;3.72;;;20.70;37.40;;;;;;5038149;28;20017;-73
2021/01/03 08:48:06;;;;;;;8.05;2.85;;;20.60;37.40;;;;;;5050463;28;20021;-73
2021/01/03 08:50:34;;;;;;;6.88;3.20;;;20.60;37.50;;;;;;5035966;28;20030;-68
2021/01/03 08:53:23;;;;;;;12.75;3.28;;;20.60;37.50;;;;;;5046687;28;20025;-68
2021/01/03 08:55:49;;;;;;;6.60;2.97;;;20.70;37.40;;;;;;5044279;28;20045;-69
2021/01/03 08:58:39;;;;;;;6.35;2.63;;;20.70;37.30;;;;;;5031966;28;20394;-69
2021/01/03 09:01:14;;;;;;;10.73;3.92;;;20.70;37.20;;;;;;5015102;28;20095;-73
2021/01/03 09:03:39;;;;;;;7.57;3.28;;;20.70;37.20;;;;;;5013908;28;20030;-73
2021/01/03 09:06:05;;;;;;;7.72;3.22;;;20.70;37.10;;;;;;5044682;28;20132;-73
2021/01/03 09:08:35;;;;;;;5.20;3.10;;;20.70;37.80;;;;;;5010931;28;20025;-73
2021/01/03 09:11:26;;;;;;;7.30;4.07;;;20.70;37.20;;;;;;5028812;28;20022;-73
2021/01/03 09:13:55;;;;;;;9.85;3.65;;;20.70;37.30;;;;;;5012127;28;20060;-73
2021/01/03 09:16:41;;;;;;;10.32;4.35;;;20.70;37.30;;;;;;5030837;28;20029;-68
2021/01/03 09:19:31;;;;;;;9.13;3.67;;;20.60;37.20;;;;;;5027772;28;20063;-74
2021/01/03 09:22:00;;;;;;;7.45;3.10;;;20.60;37.30;;;;;;5001512;28;20054;-73
2021/01/03 09:24:36;;;;;;;9.27;3.85;;;20.60;37.30;;;;;;4987648;28;20044;-69
2021/01/03 09:27:03;;;;;;;9.48;4.53;;;20.60;37.40;;;;;;5020307;28;20072;-70
2021/01/03 09:29:30;;;;;;;10.52;3.05;;;20.60;37.40;;;;;;5027765;28;20029;-68
2021/01/03 09:32:05;;;;;;;9.25;4.13;;;20.50;37.50;;;;;;4983603;28;20383;-69
2021/01/03 09:34:48;;;;;;;9.48;3.63;;;20.50;37.50;;;;;;5049127;28;20017;-68
2021/01/03 09:37:28;;;;;;;9.82;4.07;;;20.50;37.60;;;;;;5051181;28;20550;-70
2021/01/03 09:40:19;;;;;;;9.40;3.55;;;20.50;37.60;;;;;;5029204;28;20037;-68
2021/01/03 09:43:05;;;;;;;9.98;3.15;;;20.50;37.70;;;;;;5049009;28;20028;-68
2021/01/03 09:46:05;;;;;;;12.55;4.47;;;20.50;37.70;;;;;;5029825;28;20029;-68
2021/01/03 09:48:38;;;;;;;9.50;4.38;;;20.50;37.90;;;;;;5031027;28;20104;-68
2021/01/03 09:51:15;;;;;;;7.55;3.65;;;20.50;37.80;;;;;;5047990;28;20025;-73
2021/01/03 09:53:42;;;;;;;6.80;2.90;;;20.50;37.80;;;;;;5048839;28;20037;-72
2021/01/03 09:56:07;;;;;;;10.82;5.15;;;20.50;37.90;;;;;;5015481;28;20116;-73
2021/01/03 09:58:44;;;;;;;10.45;3.92;;;20.40;37.90;;;;;;5043364;28;20128;-72
2021/01/03 10:01:33;;;;;;;17.70;5.07;;;20.50;38.00;;;;;;5029306;28;20020;-73
2021/01/03 10:04:20;;;;;;;8.55;3.10;;;20.50;38.00;;;;;;5025198;28;20041;-72
2021/01/03 10:06:53;;;;;;;8.88;2.97;;;20.50;38.00;;;;;;5047541;28;20030;-72
2021/01/03 10:09:25;;;;;;;8.80;4.55;;;20.50;38.00;;;;;;5047874;28;20021;-72
2021/01/03 10:11:52;;;;;;;12.18;5.18;;;20.50;38.10;;;;;;5049362;28;20492;-73
2021/01/03 10:14:31;;;;;;;10.35;4.60;;;20.50;38.10;;;;;;5047838;28;20025;-73
2021/01/03 10:17:11;;;;;;;5.53;3.25;;;20.50;38.10;;;;;;5036303;28;20060;-75
2021/01/03 10:19:36;;;;;;;7.88;4.32;;;20.50;38.00;;;;;;5030766;28;20025;-73
2021/01/03 10:22:02;;;;;;;15.13;4.13;;;20.50;38.00;;;;;;5043710;28;20063;-75
2021/01/03 10:24:28;;;;;;;6.63;3.28;;;20.50;37.90;;;;;;5038427;28;20037;-75
2021/01/03 10:27:03;;;;;;;11.15;3.97;;;20.50;37.80;;;;;;5050267;28;20052;-75
2021/01/03 10:29:29;;;;;;;10.07;3.73;;;20.60;37.70;;;;;;5043230;28;20025;-74
2021/01/03 10:31:54;;;;;;;14.05;3.40;;;20.60;37.50;;;;;;5036695;28;20041;-74
2021/01/03 10:34:21;;;;;;;9.70;3.65;;;20.60;37.40;;;;;;5057300;28;20443;-75
2021/01/03 10:36:46;;;;;;;10.98;2.55;;;20.60;37.20;;;;;;5037079;28;20564;-74
2021/01/03 10:39:14;;;;;;;12.45;4.20;;;20.60;37.10;;;;;;5045793;28;20029;-74
2021/01/03 10:41:39;;;;;;;6.82;3.15;;;20.60;37.10;;;;;;5045472;28;20040;-75
2021/01/03 10:44:07;;;;;;;8.35;3.95;;;20.60;37.10;;;;;;5047933;28;20534;-74
2021/01/03 10:46:33;;;;;;;13.15;4.43;;;20.60;37.00;;;;;;5035630;28;20064;-73
2021/01/03 10:48:58;;;;;;;10.45;4.05;;;20.60;36.90;;;;;;5039975;28;20060;-72
2021/01/03 10:51:32;;;;;;;10.68;4.43;;;20.60;36.90;;;;;;5037305;28;20021;-72
2021/01/03 10:53:58;;;;;;;11.00;3.00;;;20.60;37.00;;;;;;5040085;28;20044;-69
2021/01/03 10:56:23;;;;;;;11.38;4.68;;;20.60;37.00;;;;;;5047304;28;20025;-69
2021/01/03 10:58:49;;;;;;;10.05;4.13;;;20.60;37.00;;;;;;5041659;28;20049;-68
2021/01/03 11:01:46;;;;;;;9.75;4.55;;;20.60;37.00;;;;;;5046105;28;20044;-69
2021/01/03 11:04:12;;;;;;;14.32;5.28;;;20.60;36.80;;;;;;5050958;28;20423;-69
2021/01/03 11:06:39;;;;;;;11.45;3.45;;;20.60;36.80;;;;;;5050250;28;20025;-71
2021/01/03 11:09:05;;;;;;;4.07;2.17;;;20.60;36.60;;;;;;5044031;28;20051;-69
2021/01/03 11:11:31;;;;;;;12.27;4.53;;;20.70;36.70;;;;;;5040343;28;20065;-69
2021/01/03 11:13:56;;;;;;;8.18;3.90;;;20.70;36.70;;;;;;5048136;28;20061;-70
2021/01/03 11:16:30;;;;;;;11.70;4.43;;;20.70;36.60;;;;;;5040177;28;20029;-70
2021/01/03 11:18:56;;;;;;;12.32;4.63;;;20.70;37.20;;;;;;5037646;28;20094;-70
2021/01/03 11:21:21;;;;;;;8.65;3.72;;;20.70;36.40;;;;;;5041370;28;20485;-70
2021/01/03 11:23:47;;;;;;;10.30;4.55;;;20.80;36.40;;;;;;5040495;28;20025;-69
2021/01/03 11:26:12;;;;;;;11.32;4.85;;;20.80;36.40;;;;;;5041843;28;20056;-70
2021/01/03 11:28:38;;;;;;;6.63;2.30;;;20.80;36.30;;;;;;5044619;28;20108;-69
2021/01/03 11:31:03;;;;;;;11.65;3.80;;;20.80;36.30;;;;;;5040285;28;20025;-70
2021/01/03 11:33:29;;;;;;;10.20;4.07;;;20.80;36.40;;;;;;5035999;28;20025;-69
2021/01/03 11:35:55;;;;;;;6.68;3.40;;;20.80;36.40;;;;;;5046697;28;20561;-70
2021/01/03 11:38:22;;;;;;;11.95;4.72;;;20.80;36.40;;;;;;5049462;28;20040;-70
2021/01/03 11:40:47;;;;;;;13.98;6.28;;;20.80;36.40;;;;;;5044975;28;20028;-70
2021/01/03 11:43:13;;;;;;;11.35;5.05;;;20.80;37.10;;;;;;5045198;28;20045;-73
2021/01/03 11:45:38;;;;;;;12.02;5.10;;;20.80;36.40;;;;;;5045226;28;20029;-72
2021/01/03 11:48:04;;;;;;;14.68;5.28;;;20.80;36.30;;;;;;5046568;28;20546;-73
2021/01/03 11:50:30;;;;;;;12.00;6.47;;;20.80;36.30;;;;;;5043221;28;20415;-73
2021/01/03 11:52:57;;;;;;;16.08;4.50;;;20.80;36.30;;;;;;5041146;28;20116;-72
2021/01/03 11:55:23;;;;;;;13.75;5.57;;;20.80;36.20;;;;;;5039992;28;20021;-72
2021/01/03 11:57:48;;;;;;;11.65;5.60;;;20.80;36.20;;;;;;5050764;28;20033;-72
2021/01/03 12:00:15;;;;;;;14.13;5.38;;;20.80;36.10;;;;;;5045410;28;20032;-71
2021/01/03 12:02:41;;;;;;;13.27;5.55;;;20.80;36.10;;;;;;5033497;28;20144;-74
2021/01/03 12:05:07;;;;;;;11.25;5.00;;;20.70;36.00;;;;;;5044005;28;20515;-72
2021/01/03 12:07:32;;;;;;;11.82;5.28;;;20.80;36.00;;;;;;5044192;28;20033;-72
2021/01/03 12:09:58;;;;;;;8.52;4.50;;;20.80;36.00;;;;;;5043306;28;20509;-72
2021/01/03 12:12:24;;;;;;;12.13;5.25;;;20.80;36.00;;;;;;5041420;28;20499;-73
2021/01/03 12:14:55;;;;;;;10.13;4.25;;;20.70;35.90;;;;;;5046953;28;20021;-71
2021/01/03 12:17:21;;;;;;;11.80;6.03;;;20.70;35.90;;;;;;5045669;28;20021;-72
2021/01/03 12:19:48;;;;;;;12.43;6.03;;;20.70;35.90;;;;;;5048896;28;20407;-73
2021/01/03 12:22:14;;;;;;;9.30;4.72;;;20.70;35.80;;;;;;5054894;28;20123;-73
2021/01/03 12:24:40;;;;;;;9.60;4.38;;;20.70;35.90;;;;;;5052285;28;20096;-73
2021/01/03 12:27:09;;;;;;;15.40;5.35;;;20.70;35.80;;;;;;5050395;28;20076;-74
2021/01/03 12:29:34;;;;;;;15.27;6.20;;;20.70;35.80;;;;;;5052165;28;20066;-72
2021/01/03 12:32:21;;;;;;;9.80;3.90;;;20.70;35.80;;;;;;5043630;28;20439;-72
2021/01/03 12:34:47;;;;;;;9.52;4.25;;;20.70;35.70;;;;;;5049736;28;20087;-72
2021/01/03 12:37:17;;;;;;;11.43;4.82;;;20.70;35.60;;;;;;5041134;28;20045;-72
2021/01/03 12:39:43;;;;;;;7.78;4.38;;;20.70;36.30;;;;;;5047252;28;20452;-72
2021/01/03 12:42:10;;;;;;;10.52;3.42;;;20.70;35.60;;;;;;5047854;28;20060;-72
2021/01/03 12:44:36;;;;;;;6.90;3.65;;;20.70;35.50;;;;;;5051422;28;20036;-72
2021/01/03 12:47:02;;;;;;;8.95;2.50;;;20.70;35.60;;;;;;5042698;28;20028;-72
2021/01/03 12:49:28;;;;;;;9.18;3.95;;;20.70;35.60;;;;;;5040523;28;20021;-71
2021/01/03 12:51:53;;;;;;;9.20;3.80;;;20.70;35.60;;;;;;5052522;28;20021;-71
2021/01/03 12:54:20;;;;;;;9.70;3.75;;;20.60;35.50;;;;;;5040861;28;20397;-70
2021/01/03 12:56:45;;;;;;;11.50;3.72;;;20.70;35.60;;;;;;5047698;28;20162;-70
2021/01/03 12:59:11;;;;;;;10.18;4.15;;;20.60;35.40;;;;;;5051479;28;20052;-70